createdAt,value
2023-05-10T05:30:03.297Z,47.63
2023-05-10T05:31:09.123Z,46.32
2023-05-10T05:32:04.291Z,45.57
2023-05-10T05:33:03.138Z,44.85
2023-05-10T05:34:04.484Z,44.07
2023-05-10T05:35:02.874Z,43.51
2023-05-10T05:36:02.755Z,43.28
2023-05-10T05:37:02.667Z,42.97
2023-05-10T05:38:02.600Z,42.63
2023-05-10T05:39:04.087Z,42.40
2023-05-10T05:40:02.310Z,42.23
2023-05-10T05:41:02.184Z,41.85
2023-05-10T05:42:02.072Z,41.47
2023-05-10T05:43:02.009Z,41.17
2023-05-10T05:44:02.548Z,41.08
2023-05-10T05:45:01.834Z,41.56
2023-05-10T05:46:01.674Z,41.53
2023-05-10T05:47:01.573Z,41.41
2023-05-10T05:48:02.077Z,41.50
2023-05-10T05:49:01.387Z,41.41
2023-05-10T05:50:01.292Z,41.38
2023-05-10T05:51:01.213Z,41.34
2023-05-10T05:52:01.104Z,41.28
2023-05-10T05:53:01.099Z,41.18
2023-05-10T05:54:00.905Z,41.13
2023-05-10T05:55:00.837Z,41.11
2023-05-10T05:56:00.751Z,41.06
2023-05-10T05:57:01.523Z,41.00
2023-05-10T05:58:00.558Z,40.99
2023-05-10T05:59:00.472Z,40.93
2023-05-10T06:00:00.426Z,40.96
2023-05-10T06:01:00.273Z,40.93
2023-05-10T06:02:01.025Z,40.91
2023-05-10T06:03:00.324Z,40.90
2023-05-10T06:04:00.070Z,40.86
2023-05-10T06:04:59.917Z,40.86
2023-05-10T06:05:59.796Z,40.84
2023-05-10T06:07:00.509Z,40.82
2023-05-10T06:07:59.609Z,40.79
2023-05-10T06:08:59.622Z,40.76
2023-05-10T06:09:59.412Z,40.61
2023-05-10T06:11:01.003Z,40.60
2023-05-10T06:11:59.272Z,40.75
2023-05-10T06:12:59.184Z,40.75
2023-05-10T06:13:59.497Z,40.74
2023-05-10T06:14:58.948Z,40.70
2023-05-10T06:15:58.869Z,40.71
2023-05-10T06:16:58.815Z,40.74
2023-05-10T06:17:58.734Z,40.68
2023-05-10T06:18:58.557Z,40.74
2023-05-10T06:19:58.485Z,40.73
2023-05-10T06:20:58.373Z,40.68
2023-05-10T06:21:58.252Z,40.66
2023-05-10T06:22:58.173Z,40.91
2023-05-10T06:23:58.102Z,40.96
2023-05-10T06:24:58.012Z,40.96
2023-05-10T06:25:57.928Z,40.47
2023-05-10T06:26:57.851Z,40.71
2023-05-10T06:27:57.756Z,40.83
2023-05-10T06:28:59.540Z,40.83
2023-05-10T06:30:09.206Z,41.18
2023-05-10T06:30:57.451Z,40.97
2023-05-10T06:31:57.351Z,40.58
2023-05-10T06:32:57.305Z,40.11
2023-05-10T06:33:57.189Z,39.88
2023-05-10T06:34:57.151Z,39.69
2023-05-10T06:35:57.142Z,39.43
2023-05-10T06:36:56.983Z,39.31
2023-05-10T06:37:56.911Z,39.13
2023-05-10T06:38:58.536Z,38.61
2023-05-10T06:39:56.814Z,38.34
2023-05-10T06:40:56.773Z,38.09
2023-05-10T06:41:56.625Z,37.80
2023-05-10T06:42:56.556Z,37.76
2023-05-10T06:43:56.753Z,37.78
2023-05-10T06:44:56.291Z,37.85
2023-05-10T06:45:56.209Z,37.57
2023-05-10T06:46:57.047Z,37.66
2023-05-10T06:47:56.569Z,37.67
2023-05-10T06:48:55.812Z,37.95
2023-05-10T06:49:55.695Z,37.92
2023-05-10T06:50:56.409Z,37.91
2023-05-10T06:51:55.464Z,37.95
2023-05-10T06:52:55.334Z,37.86
2023-05-10T06:53:55.237Z,37.88
2023-05-10T06:54:55.138Z,38.03
2023-05-10T06:55:54.958Z,38.36
2023-05-10T06:56:54.845Z,38.30
2023-05-10T06:57:54.737Z,38.18
2023-05-10T06:58:54.643Z,38.17
2023-05-10T06:59:54.503Z,38.10
2023-05-10T07:00:54.463Z,38.32
2023-05-10T07:01:54.268Z,38.32
2023-05-10T07:02:54.140Z,38.21
2023-05-10T07:03:54.030Z,38.14
2023-05-10T07:04:53.921Z,38.27
2023-05-10T07:05:54.516Z,37.96
2023-05-10T07:06:54.009Z,37.62
2023-05-10T07:07:53.506Z,37.68
2023-05-10T07:08:53.388Z,37.65
2023-05-10T07:09:53.957Z,37.87
2023-05-10T07:10:53.166Z,37.85
2023-05-10T07:11:53.030Z,37.88
2023-05-10T07:12:52.984Z,38.03
2023-05-10T07:13:52.774Z,37.95
2023-05-10T07:14:52.658Z,37.93
2023-05-10T07:15:52.550Z,38.56
2023-05-10T07:16:54.950Z,39.28
2023-05-10T07:17:53.199Z,39.60
2023-05-10T07:18:52.336Z,39.50
2023-05-10T07:19:52.576Z,39.49
2023-05-10T07:20:52.119Z,39.71
2023-05-10T07:21:51.979Z,39.00
2023-05-10T07:22:51.888Z,38.47
2023-05-10T07:23:51.839Z,37.86
2023-05-10T07:24:51.703Z,37.59
2023-05-10T07:25:51.601Z,37.71
2023-05-10T07:27:02.544Z,38.13
2023-05-10T07:27:51.375Z,38.40
2023-05-10T07:28:51.279Z,38.69
2023-05-10T07:29:51.150Z,38.74
2023-05-10T07:30:51.105Z,38.55
2023-05-10T07:31:50.973Z,38.28
2023-05-10T07:32:50.805Z,38.10
2023-05-10T07:34:01.603Z,38.14
2023-05-10T07:34:50.522Z,38.17
2023-05-10T07:35:50.441Z,38.15
2023-05-10T07:36:51.083Z,38.22
2023-05-10T07:37:57.156Z,37.87
2023-05-10T07:38:50.025Z,37.94
2023-05-10T07:39:49.911Z,38.22
2023-05-10T07:40:50.455Z,38.43
2023-05-10T07:41:50.566Z,38.53
2023-05-10T07:42:49.556Z,38.50
2023-05-10T07:43:49.707Z,38.51
2023-05-10T07:44:49.404Z,38.40
2023-05-10T07:45:49.212Z,38.22
2023-05-10T07:46:49.071Z,38.17
2023-05-10T07:47:48.998Z,38.22
2023-05-10T07:48:48.896Z,38.24
2023-05-10T07:49:50.538Z,38.25
2023-05-10T07:50:49.514Z,38.09
2023-05-10T07:51:50.511Z,37.60
2023-05-10T07:52:48.739Z,37.14
2023-05-10T07:53:48.675Z,36.99
2023-05-10T07:54:50.492Z,37.00
2023-05-10T07:55:48.389Z,37.45
2023-05-10T07:56:48.367Z,37.79
2023-05-10T07:57:48.146Z,37.89
2023-05-10T07:58:48.021Z,37.93
2023-05-10T07:59:47.897Z,37.76
2023-05-10T08:00:50.553Z,37.26
2023-05-10T08:01:47.694Z,37.12
2023-05-10T08:02:47.700Z,37.01
2023-05-10T08:03:48.176Z,36.77
2023-05-10T08:04:48.448Z,36.59
2023-05-10T08:05:47.357Z,36.65
2023-05-10T08:06:47.318Z,36.94
2023-05-10T08:07:50.025Z,37.18
2023-05-10T08:08:47.130Z,37.40
2023-05-10T08:09:47.586Z,37.61
2023-05-10T08:10:46.983Z,37.79
2023-05-10T08:11:46.755Z,37.40
2023-05-10T08:12:46.628Z,37.45
2023-05-10T08:13:46.525Z,37.88
2023-05-10T08:14:46.396Z,38.02
2023-05-10T08:15:46.297Z,38.03
2023-05-10T08:16:46.150Z,38.33
2023-05-10T08:17:46.033Z,38.39
2023-05-10T08:18:46.001Z,38.83
2023-05-10T08:19:45.776Z,38.83
2023-05-10T08:20:46.667Z,38.68
2023-05-10T08:21:45.559Z,38.24
2023-05-10T08:22:45.498Z,38.13
2023-05-10T08:23:45.352Z,37.51
2023-05-10T08:24:45.142Z,37.57
2023-05-10T08:25:45.101Z,37.77
2023-05-10T08:26:44.904Z,37.59
2023-05-10T08:27:44.954Z,36.36
2023-05-10T08:28:44.803Z,35.84
2023-05-10T08:29:50.182Z,36.04
2023-05-10T08:30:45.549Z,36.16
2023-05-10T08:31:44.600Z,36.18
2023-05-10T08:32:44.358Z,36.08
2023-05-10T08:33:44.885Z,35.90
2023-05-10T08:34:44.114Z,36.05
2023-05-10T08:35:43.948Z,36.48
2023-05-10T08:36:43.832Z,36.68
2023-05-10T08:37:43.708Z,36.76
2023-05-10T08:38:44.599Z,36.86
2023-05-10T08:39:44.462Z,37.45
2023-05-10T08:40:43.343Z,37.86
2023-05-10T08:41:43.281Z,37.83
2023-05-10T08:42:43.092Z,37.81
2023-05-10T08:43:42.980Z,37.74
2023-05-10T08:44:49.435Z,37.95
2023-05-10T08:45:42.776Z,37.90
2023-05-10T08:46:42.688Z,38.11
2023-05-10T08:47:42.606Z,38.33
2023-05-10T08:48:43.390Z,38.53
2023-05-10T08:49:42.293Z,38.72
2023-05-10T08:50:50.080Z,38.65
2023-05-10T08:51:43.811Z,38.45
2023-05-10T08:52:41.979Z,38.28
2023-05-10T08:53:41.831Z,38.33
2023-05-10T08:54:41.699Z,38.19
2023-05-10T08:55:42.106Z,38.26
2023-05-10T08:56:43.030Z,38.40
2023-05-10T08:57:41.420Z,38.46
2023-05-10T08:58:41.235Z,38.30
2023-05-10T08:59:41.127Z,38.29
2023-05-10T09:00:42.012Z,38.19
2023-05-10T09:01:41.062Z,38.14
2023-05-10T09:02:43.572Z,37.85
2023-05-10T09:03:40.711Z,37.49
2023-05-10T09:04:40.582Z,37.62
2023-05-10T09:05:40.401Z,37.59
2023-05-10T09:06:40.287Z,37.73
2023-05-10T09:07:41.148Z,37.67
2023-05-10T09:08:40.046Z,37.54
2023-05-10T09:09:39.908Z,37.50
2023-05-10T09:10:39.789Z,37.51
2023-05-10T09:11:40.501Z,37.49
2023-05-10T09:12:40.746Z,37.43
2023-05-10T09:13:39.405Z,37.50
2023-05-10T09:14:39.437Z,37.59
2023-05-10T09:15:39.182Z,37.45
2023-05-10T09:16:39.088Z,37.77
2023-05-10T09:17:38.968Z,38.50
2023-05-10T09:18:38.933Z,38.55
2023-05-10T09:19:40.512Z,38.92
2023-05-10T09:20:38.683Z,39.23
2023-05-10T09:21:38.605Z,39.05
2023-05-10T09:22:39.508Z,39.14
2023-05-10T09:23:38.485Z,39.01
2023-05-10T09:24:38.416Z,38.78
2023-05-10T09:25:38.515Z,38.64
2023-05-10T09:26:38.311Z,38.58
2023-05-10T09:27:38.220Z,38.24
2023-05-10T09:28:38.150Z,38.37
2023-05-10T09:29:38.171Z,38.31
2023-05-10T09:30:39.196Z,38.48
2023-05-10T09:31:39.731Z,38.41
2023-05-10T09:32:37.942Z,38.36
2023-05-10T09:33:38.577Z,38.45
2023-05-10T09:34:38.443Z,38.47
2023-05-10T09:35:42.672Z,38.38
2023-05-10T09:36:38.592Z,38.38
2023-05-10T09:37:37.539Z,38.42
2023-05-10T09:38:37.362Z,38.39
2023-05-10T09:39:38.188Z,38.41
2023-05-10T09:40:38.002Z,38.46
2023-05-10T09:41:36.930Z,38.61
2023-05-10T09:42:39.540Z,38.56
2023-05-10T09:43:37.670Z,38.52
2023-05-10T09:44:37.470Z,38.53
2023-05-10T09:45:38.511Z,38.59
2023-05-10T09:46:36.517Z,38.71
2023-05-10T09:47:36.434Z,38.67
2023-05-10T09:48:36.358Z,38.66
2023-05-10T09:49:36.250Z,38.14
2023-05-10T09:50:36.201Z,37.68
2023-05-10T09:51:36.916Z,37.58
2023-05-10T09:52:41.095Z,37.84
2023-05-10T09:53:35.951Z,38.09
2023-05-10T09:54:35.822Z,38.16
2023-05-10T09:55:35.728Z,38.35
2023-05-10T09:56:35.573Z,38.45
2023-05-10T09:57:35.467Z,38.48
2023-05-10T09:58:36.004Z,38.43
2023-05-10T09:59:35.177Z,38.53
2023-05-10T10:00:35.075Z,38.58
2023-05-10T10:01:35.037Z,38.57
2023-05-10T10:02:35.015Z,38.40
2023-05-10T10:03:34.869Z,38.35
2023-05-10T10:04:34.845Z,38.59
2023-05-10T10:05:34.773Z,38.55
2023-05-10T10:06:34.668Z,38.49
2023-05-10T10:07:34.596Z,38.43
2023-05-10T10:08:34.547Z,38.43
2023-05-10T10:09:34.469Z,38.77
2023-05-10T10:10:34.449Z,38.65
2023-05-10T10:11:34.349Z,38.73
2023-05-10T10:12:34.287Z,38.64
2023-05-10T10:13:34.223Z,38.33
2023-05-10T10:14:34.159Z,38.39
2023-05-10T10:15:34.548Z,38.60
2023-05-10T10:16:34.047Z,38.64
2023-05-10T10:17:33.972Z,38.41
2023-05-10T10:18:34.011Z,38.41
2023-05-10T10:19:33.801Z,38.56
2023-05-10T10:20:33.750Z,38.55
2023-05-10T10:21:33.675Z,38.68
2023-05-10T10:22:33.598Z,38.62
2023-05-10T10:23:33.541Z,38.80
2023-05-10T10:24:33.493Z,38.79
2023-05-10T10:25:33.409Z,38.82
2023-05-10T10:26:33.327Z,38.92
2023-05-10T10:27:33.252Z,38.87
2023-05-10T10:28:33.183Z,38.95
2023-05-10T10:29:33.105Z,38.94
2023-05-10T10:30:33.051Z,39.19
2023-05-10T10:31:33.008Z,39.15
2023-05-10T10:32:32.932Z,39.19
2023-05-10T10:33:32.846Z,39.16
2023-05-10T10:34:32.757Z,38.65
2023-05-10T10:35:32.725Z,38.49
2023-05-10T10:36:32.637Z,38.80
2023-05-10T10:37:32.535Z,38.89
2023-05-10T10:38:32.466Z,39.01
2023-05-10T10:39:32.392Z,38.97
2023-05-10T10:40:34.636Z,39.02
2023-05-10T10:41:32.205Z,39.05
2023-05-10T10:42:33.070Z,39.09
2023-05-10T10:43:31.954Z,39.20
2023-05-10T10:44:31.868Z,39.26
2023-05-10T10:45:31.703Z,39.16
2023-05-10T10:46:31.645Z,39.23
2023-05-10T10:47:31.493Z,39.20
2023-05-10T10:48:31.365Z,39.22
2023-05-10T10:49:31.210Z,39.22
2023-05-10T10:50:31.103Z,39.21
2023-05-10T10:51:30.989Z,39.24
2023-05-10T10:52:30.929Z,39.18
2023-05-10T10:53:30.737Z,39.25
2023-05-10T10:54:30.629Z,39.28
2023-05-10T10:55:30.526Z,39.22
2023-05-10T10:56:30.458Z,39.21
2023-05-10T10:57:30.385Z,39.24
2023-05-10T10:58:30.301Z,39.18
2023-05-10T10:59:30.241Z,39.30
2023-05-10T11:00:30.214Z,39.19
2023-05-10T11:01:30.289Z,39.12
2023-05-10T11:02:31.359Z,39.15
2023-05-10T11:03:30.043Z,39.22
2023-05-10T11:04:30.008Z,39.14
2023-05-10T11:05:29.914Z,39.01
2023-05-10T11:06:29.830Z,38.93
2023-05-10T11:07:29.786Z,39.00
2023-05-10T11:08:29.748Z,39.01
2023-05-10T11:09:29.606Z,39.11
2023-05-10T11:10:29.548Z,39.13
2023-05-10T11:11:29.475Z,39.10
2023-05-10T11:12:29.385Z,39.20
2023-05-10T11:13:29.314Z,39.17
2023-05-10T11:14:29.245Z,39.20
2023-05-10T11:15:29.187Z,39.27
2023-05-10T11:16:29.149Z,39.28
2023-05-10T11:17:29.114Z,39.31
2023-05-10T11:18:28.968Z,39.35
2023-05-10T11:19:28.853Z,39.41
2023-05-10T11:20:28.797Z,39.49
2023-05-10T11:21:28.873Z,39.48
2023-05-10T11:22:28.643Z,39.50
2023-05-10T11:23:28.561Z,39.59
2023-05-10T11:24:28.489Z,39.62
2023-05-10T11:25:28.417Z,39.65
2023-05-10T11:26:28.332Z,39.66
2023-05-10T11:27:28.260Z,39.69
2023-05-10T11:28:28.195Z,39.70
2023-05-10T11:29:28.127Z,39.70
2023-05-10T11:30:28.041Z,39.78
2023-05-10T11:31:28.086Z,39.77
2023-05-10T11:32:27.914Z,39.74
2023-05-10T11:33:27.816Z,39.91
2023-05-10T11:34:27.731Z,39.83
2023-05-10T11:35:27.666Z,39.77
2023-05-10T11:36:27.601Z,39.73
2023-05-10T11:37:27.511Z,39.74
2023-05-10T11:38:27.458Z,39.67
2023-05-10T11:39:27.376Z,39.64
2023-05-10T11:40:27.293Z,39.61
2023-05-10T11:41:27.227Z,39.65
2023-05-10T11:42:27.144Z,39.56
2023-05-10T11:43:27.083Z,39.65
2023-05-10T11:44:27.009Z,39.53
2023-05-10T11:45:26.924Z,39.57
2023-05-10T11:46:26.914Z,39.50
2023-05-10T11:47:26.820Z,39.41
2023-05-10T11:48:26.715Z,39.28
2023-05-10T11:49:26.643Z,39.32
2023-05-10T11:50:26.559Z,39.24
2023-05-10T11:51:26.508Z,39.29
2023-05-10T11:52:27.015Z,39.32
2023-05-10T11:53:26.356Z,39.32
2023-05-10T11:54:26.264Z,39.29
2023-05-10T11:55:26.192Z,39.29
2023-05-10T11:56:26.124Z,39.24
2023-05-10T11:57:26.052Z,39.25
2023-05-10T11:58:25.966Z,39.24
2023-05-10T11:59:25.890Z,39.32
2023-05-10T12:00:25.820Z,39.41
2023-05-10T12:01:25.746Z,39.35
2023-05-10T12:02:25.760Z,39.39
2023-05-10T12:03:25.754Z,39.36
2023-05-10T12:04:25.544Z,39.35
2023-05-10T12:05:25.434Z,39.36
2023-05-10T12:06:25.368Z,39.32
2023-05-10T12:07:25.292Z,39.52
2023-05-10T12:08:25.226Z,39.42
2023-05-10T12:09:39.434Z,39.44
2023-05-10T12:10:26.042Z,39.42
2023-05-10T12:11:24.894Z,39.39
2023-05-10T12:12:24.775Z,39.38
2023-05-10T12:13:24.668Z,39.32
2023-05-10T12:14:24.542Z,39.28
2023-05-10T12:15:24.489Z,39.19
2023-05-10T12:16:24.381Z,39.22
2023-05-10T12:17:24.200Z,39.28
2023-05-10T12:18:24.078Z,41.66
2023-05-10T12:19:23.932Z,40.27
2023-05-10T12:20:23.832Z,40.28
2023-05-10T12:21:23.702Z,40.12
2023-05-10T12:22:23.597Z,40.09
2023-05-10T12:23:23.458Z,39.96
2023-05-10T12:24:23.365Z,39.89
2023-05-10T12:25:23.307Z,39.90
2023-05-10T12:26:23.200Z,39.79
2023-05-10T12:27:23.105Z,39.78
2023-05-10T12:28:23.024Z,39.63
2023-05-10T12:29:22.933Z,39.61
2023-05-10T12:30:22.854Z,39.51
2023-05-10T12:31:22.866Z,39.50
2023-05-10T12:32:22.700Z,39.47
2023-05-10T12:33:22.701Z,39.46
2023-05-10T12:34:22.533Z,39.44
2023-05-10T12:35:22.446Z,39.43
2023-05-10T12:36:22.371Z,39.48
2023-05-10T12:37:22.286Z,39.41
2023-05-10T12:38:22.204Z,39.48
2023-05-10T12:39:22.126Z,39.50
2023-05-10T12:40:22.047Z,39.58
2023-05-10T12:41:22.151Z,39.64
2023-05-10T12:42:21.886Z,39.72
2023-05-10T12:43:21.818Z,40.14
2023-05-10T12:44:21.764Z,40.31
2023-05-10T12:45:21.653Z,40.65
2023-05-10T12:46:21.597Z,40.66
2023-05-10T12:47:21.505Z,40.90
2023-05-10T12:48:21.435Z,40.83
2023-05-10T12:49:21.360Z,40.30
2023-05-10T12:50:21.266Z,40.06
2023-05-10T12:51:21.261Z,40.13
2023-05-10T12:52:21.120Z,40.12
2023-05-10T12:53:21.038Z,40.06
2023-05-10T12:54:20.974Z,40.09
2023-05-10T12:55:20.879Z,40.09
2023-05-10T12:56:20.787Z,40.12
2023-05-10T12:57:20.707Z,40.09
2023-05-10T12:58:34.313Z,40.10
2023-05-10T12:59:21.499Z,40.12
2023-05-10T13:00:20.378Z,40.10
2023-05-10T13:01:20.302Z,40.10
2023-05-10T13:02:20.154Z,40.12
2023-05-10T13:03:20.027Z,40.14
2023-05-10T13:04:19.933Z,40.12
2023-05-10T13:05:19.783Z,40.07
2023-05-10T13:06:19.651Z,40.06
2023-05-10T13:07:19.539Z,40.09
2023-05-10T13:08:19.409Z,40.11
2023-05-10T13:09:19.291Z,40.08
2023-05-10T13:10:19.496Z,40.04
2023-05-10T13:11:19.059Z,40.07
2023-05-10T13:12:18.927Z,39.99
2023-05-10T13:13:18.813Z,39.96
2023-05-10T13:14:18.686Z,39.89
2023-05-10T13:15:18.578Z,39.98
2023-05-10T13:16:18.556Z,40.00
2023-05-10T13:17:18.543Z,40.01
2023-05-10T13:18:18.413Z,40.03
2023-05-10T13:19:18.365Z,40.01
2023-05-10T13:20:18.408Z,39.99
2023-05-10T13:21:18.106Z,40.00
2023-05-10T13:22:25.606Z,39.98
2023-05-10T13:23:18.906Z,40.00
2023-05-10T13:24:17.765Z,39.92
2023-05-10T13:25:17.658Z,39.92
2023-05-10T13:26:17.518Z,39.86
2023-05-10T13:27:17.401Z,39.89
2023-05-10T13:28:17.291Z,39.86
2023-05-10T13:29:18.014Z,39.87
2023-05-10T13:30:18.271Z,39.82
2023-05-10T13:31:17.004Z,39.85
2023-05-10T13:32:16.783Z,39.78
2023-05-10T13:33:16.663Z,39.75
2023-05-10T13:34:16.548Z,39.78
2023-05-10T13:35:16.462Z,39.75
2023-05-10T13:36:16.290Z,39.72
2023-05-10T13:37:16.170Z,39.68
2023-05-10T13:38:16.061Z,39.68
2023-05-10T13:39:16.012Z,39.65
2023-05-10T13:40:16.046Z,39.63
2023-05-10T13:41:15.825Z,39.60
2023-05-10T13:42:15.746Z,39.60
2023-05-10T13:43:15.659Z,39.60
2023-05-10T13:44:15.598Z,39.60
2023-05-10T13:45:15.885Z,39.62
2023-05-10T13:46:15.460Z,39.62
2023-05-10T13:47:15.336Z,39.62
2023-05-10T13:48:15.257Z,39.63
2023-05-10T13:49:15.191Z,39.62
2023-05-10T13:50:15.116Z,39.55
2023-05-10T13:51:15.046Z,39.57
2023-05-10T13:52:14.957Z,39.56
2023-05-10T13:53:14.883Z,39.56
2023-05-10T13:54:14.882Z,39.63
2023-05-10T13:55:14.725Z,39.60
2023-05-10T13:56:14.645Z,39.58
2023-05-10T13:57:14.571Z,39.53
2023-05-10T13:58:14.474Z,39.53
2023-05-10T13:59:14.395Z,39.53
2023-05-10T14:00:14.315Z,39.54
2023-05-10T14:01:14.323Z,39.56
2023-05-10T14:02:14.221Z,39.51
2023-05-10T14:03:14.111Z,39.51
2023-05-10T14:04:14.010Z,39.51
2023-05-10T14:05:14.136Z,39.49
2023-05-10T14:06:13.853Z,39.47
2023-05-10T14:07:13.777Z,39.43
2023-05-10T14:08:13.715Z,39.47
2023-05-10T14:09:13.621Z,39.47
2023-05-10T14:10:13.548Z,39.50
2023-05-10T14:11:13.466Z,39.53
2023-05-10T14:12:13.392Z,39.79
2023-05-10T14:13:13.393Z,39.71
2023-05-10T14:14:13.252Z,39.59
2023-05-10T14:15:13.159Z,39.45
2023-05-10T14:16:13.104Z,39.27
2023-05-10T14:17:13.095Z,39.27
2023-05-10T14:18:12.924Z,39.10
2023-05-10T14:19:12.854Z,39.06
2023-05-10T14:20:12.789Z,38.93
2023-05-10T14:21:12.713Z,38.93
2023-05-10T14:22:12.648Z,38.84
2023-05-10T14:23:12.606Z,38.86
2023-05-10T14:24:12.507Z,38.75
2023-05-10T14:25:12.429Z,38.82
2023-05-10T14:26:12.347Z,38.86
2023-05-10T14:27:12.278Z,38.78
2023-05-10T14:28:12.252Z,38.75
2023-05-10T14:29:12.757Z,38.60
2023-05-10T14:30:12.077Z,38.62
2023-05-10T14:31:11.997Z,38.65
2023-05-10T14:32:11.968Z,38.68
2023-05-10T14:33:11.873Z,38.50
2023-05-10T14:34:11.770Z,38.50
2023-05-10T14:35:13.988Z,38.61
2023-05-10T14:36:11.568Z,38.71
2023-05-10T14:37:11.458Z,38.62
2023-05-10T14:38:11.333Z,38.59
2023-05-10T14:39:11.206Z,38.68
2023-05-10T14:40:11.071Z,38.58
2023-05-10T14:41:11.970Z,38.48
2023-05-10T14:42:10.829Z,38.46
2023-05-10T14:43:10.672Z,38.49
2023-05-10T14:44:10.555Z,38.58
2023-05-10T14:45:10.416Z,38.41
2023-05-10T14:46:10.332Z,38.39
2023-05-10T14:47:12.057Z,38.37
2023-05-10T14:48:10.025Z,38.47
2023-05-10T14:49:09.898Z,38.32
2023-05-10T14:50:09.775Z,38.36
2023-05-10T14:51:09.666Z,38.25
2023-05-10T14:52:09.593Z,38.25
2023-05-10T14:53:09.525Z,38.27
2023-05-10T14:54:09.465Z,38.19
2023-05-10T14:55:09.391Z,38.19
2023-05-10T14:56:09.326Z,38.15
2023-05-10T14:57:09.258Z,38.31
2023-05-10T14:58:09.182Z,38.30
2023-05-10T14:59:09.119Z,38.54
2023-05-10T15:00:09.048Z,38.51
2023-05-10T15:01:09.001Z,38.56
2023-05-10T15:02:08.924Z,38.82
2023-05-10T15:03:08.909Z,39.06
2023-05-10T15:04:08.767Z,39.27
2023-05-10T15:05:08.693Z,39.24
2023-05-10T15:06:08.630Z,39.35
2023-05-10T15:07:08.562Z,39.57
2023-05-10T15:08:08.506Z,39.67
2023-05-10T15:09:08.443Z,39.87
2023-05-10T15:10:08.393Z,40.09
2023-05-10T15:11:08.334Z,40.00
2023-05-10T15:12:08.280Z,40.09
2023-05-10T15:13:08.192Z,40.03
2023-05-10T15:14:08.133Z,39.99
2023-05-10T15:15:08.059Z,39.91
2023-05-10T15:16:08.036Z,39.85
2023-05-10T15:17:07.945Z,39.98
2023-05-10T15:18:07.956Z,40.82
2023-05-10T15:19:07.957Z,41.44
2023-05-10T15:20:07.756Z,41.74
2023-05-10T15:21:07.701Z,41.78
2023-05-10T15:22:07.652Z,41.18
2023-05-10T15:23:07.587Z,41.22
2023-05-10T15:24:07.511Z,41.21
2023-05-10T15:25:07.452Z,41.15
2023-05-10T15:26:07.431Z,41.13
2023-05-10T15:27:07.314Z,41.16
2023-05-10T15:28:07.259Z,41.32
2023-05-10T15:29:07.191Z,41.05
2023-05-10T15:30:07.134Z,40.92
2023-05-10T15:31:07.095Z,40.83
2023-05-10T15:32:07.010Z,40.63
2023-05-10T15:33:07.032Z,40.82
2023-05-10T15:34:06.875Z,40.72
2023-05-10T15:35:06.815Z,40.67
2023-05-10T15:36:06.748Z,40.66
2023-05-10T15:37:06.678Z,40.58
2023-05-10T15:38:06.619Z,40.63
2023-05-10T15:39:06.551Z,40.50
2023-05-10T15:40:06.516Z,40.51
2023-05-10T15:41:06.412Z,40.46
2023-05-10T15:42:06.359Z,40.46
2023-05-10T15:43:06.300Z,40.46
2023-05-10T15:44:06.232Z,40.41
2023-05-10T15:45:06.167Z,40.44
2023-05-10T15:46:06.116Z,40.33
2023-05-10T15:47:06.128Z,40.30
2023-05-10T15:48:06.075Z,40.27
2023-05-10T15:49:05.917Z,40.27
2023-05-10T15:50:05.844Z,40.30
2023-05-10T15:51:05.782Z,40.30
2023-05-10T15:52:05.711Z,40.24
2023-05-10T15:53:05.673Z,40.24
2023-05-10T15:54:07.508Z,40.23
2023-05-10T15:55:05.633Z,40.19
2023-05-10T15:56:05.568Z,40.17
2023-05-10T15:57:05.514Z,40.14
2023-05-10T15:58:05.433Z,40.16
2023-05-10T15:59:05.360Z,40.08
2023-05-10T16:00:05.288Z,40.06
2023-05-10T16:01:05.313Z,40.13
2023-05-10T16:02:05.180Z,40.03
2023-05-10T16:03:05.220Z,40.06
2023-05-10T16:04:05.012Z,40.03
2023-05-10T16:05:04.964Z,40.02
2023-05-10T16:06:04.874Z,40.03
2023-05-10T16:07:04.832Z,40.06
2023-05-10T16:08:04.736Z,40.02
2023-05-10T16:09:04.674Z,39.97
2023-05-10T16:10:04.580Z,39.97
2023-05-10T16:11:04.527Z,39.99
2023-05-10T16:12:04.441Z,39.99
2023-05-10T16:13:04.377Z,39.97
2023-05-10T16:14:05.672Z,39.95
2023-05-10T16:15:04.163Z,39.96
2023-05-10T16:16:04.084Z,39.95
2023-05-10T16:17:03.972Z,39.95
2023-05-10T16:18:03.884Z,39.90
2023-05-10T16:19:03.716Z,39.84
2023-05-10T16:20:03.597Z,39.89
2023-05-10T16:21:03.399Z,39.90
2023-05-10T16:22:03.264Z,39.91
2023-05-10T16:23:03.142Z,39.85
2023-05-10T16:24:03.022Z,39.88
2023-05-10T16:25:02.882Z,39.89
2023-05-10T16:26:02.771Z,39.84
2023-05-10T16:27:02.630Z,39.78
2023-05-10T16:28:02.516Z,39.82
2023-05-10T16:29:02.389Z,39.84
2023-05-10T16:30:02.320Z,39.87
2023-05-10T16:31:02.176Z,39.84
2023-05-10T16:32:02.002Z,39.82
2023-05-10T16:33:01.921Z,39.81
2023-05-10T16:34:01.749Z,39.72
2023-05-10T16:35:01.679Z,39.79
2023-05-10T16:36:01.487Z,39.77
2023-05-10T16:37:01.374Z,39.78
2023-05-10T16:38:01.275Z,39.71
2023-05-10T16:39:01.124Z,39.74
2023-05-10T16:40:00.996Z,39.74
2023-05-10T16:41:00.855Z,39.73
2023-05-10T16:42:00.735Z,39.71
2023-05-10T16:43:00.609Z,39.71
2023-05-10T16:44:00.473Z,39.67
2023-05-10T16:45:00.342Z,39.71
2023-05-10T16:46:00.295Z,39.65
2023-05-10T16:47:00.143Z,39.65
2023-05-10T16:48:00.056Z,39.70
2023-05-10T16:48:59.826Z,39.67
2023-05-10T16:49:59.740Z,39.63
2023-05-10T16:50:59.582Z,39.67
2023-05-10T16:51:59.448Z,39.67
2023-05-10T16:52:59.570Z,39.67
2023-05-10T16:53:59.199Z,39.64
2023-05-10T16:54:59.124Z,39.64
2023-05-10T16:55:59.070Z,39.65
2023-05-10T16:56:59.013Z,39.59
2023-05-10T16:57:58.959Z,39.60
2023-05-10T16:58:58.875Z,39.64
2023-05-10T16:59:58.811Z,39.65
2023-05-10T17:00:58.747Z,39.58
2023-05-10T17:01:58.764Z,39.63
2023-05-10T17:02:58.710Z,39.60
2023-05-10T17:03:58.715Z,39.63
2023-05-10T17:04:58.479Z,39.58
2023-05-10T17:05:58.652Z,39.56
2023-05-10T17:06:58.363Z,39.58
2023-05-10T17:07:58.282Z,39.60
2023-05-10T17:08:58.222Z,39.56
2023-05-10T17:09:58.148Z,39.57
2023-05-10T17:10:58.073Z,39.63
2023-05-10T17:11:58.024Z,39.56
2023-05-10T17:12:58.160Z,39.58
2023-05-10T17:13:57.877Z,39.58
2023-05-10T17:14:57.813Z,39.58
2023-05-10T17:15:57.912Z,39.56
2023-05-10T17:16:57.733Z,39.58
2023-05-10T17:17:57.670Z,39.61
2023-05-10T17:18:57.653Z,39.54
2023-05-10T17:19:57.494Z,39.56
2023-05-10T17:20:57.429Z,39.53
2023-05-10T17:21:57.359Z,39.51
2023-05-10T17:22:57.533Z,39.52
2023-05-10T17:23:57.230Z,39.56
2023-05-10T17:24:57.200Z,39.56
2023-05-10T17:25:58.070Z,39.53
2023-05-10T17:26:57.060Z,39.54
2023-05-10T17:27:56.985Z,39.51
2023-05-10T17:28:56.906Z,39.56
2023-05-10T17:29:56.836Z,39.58
2023-05-10T17:30:56.777Z,39.57
2023-05-10T17:31:56.804Z,39.53
2023-05-10T17:32:56.697Z,39.50
2023-05-10T17:33:56.575Z,39.52
2023-05-10T17:34:56.518Z,39.51
2023-05-10T17:35:56.437Z,39.50
2023-05-10T17:36:56.370Z,39.54
2023-05-10T17:37:56.311Z,39.50
2023-05-10T17:38:56.235Z,39.51
2023-05-10T17:39:56.173Z,39.50
2023-05-10T17:40:56.094Z,39.53
2023-05-10T17:41:56.034Z,39.54
2023-05-10T17:42:56.054Z,39.51
2023-05-10T17:43:55.906Z,39.50
2023-05-10T17:44:55.836Z,39.53
2023-05-10T17:45:55.828Z,39.50
2023-05-10T17:46:55.702Z,39.53
2023-05-10T17:47:55.693Z,39.48
2023-05-10T17:48:55.575Z,39.46
2023-05-10T17:49:55.500Z,39.48
2023-05-10T17:50:55.435Z,39.50
2023-05-10T17:51:55.379Z,39.48
2023-05-10T17:52:55.307Z,39.50
2023-05-10T17:53:55.242Z,39.44
2023-05-10T17:54:55.197Z,39.48
2023-05-10T17:55:55.122Z,39.50
2023-05-10T17:56:55.044Z,39.51
2023-05-10T17:57:55.016Z,39.50
2023-05-10T17:58:54.947Z,39.50
2023-05-10T17:59:54.875Z,39.48
2023-05-10T18:00:54.844Z,39.44
2023-05-10T18:01:54.741Z,39.46
2023-05-10T18:02:54.729Z,39.44
2023-05-10T18:03:54.614Z,39.44
2023-05-10T18:04:55.675Z,39.47
2023-05-10T18:05:54.549Z,39.43
2023-05-10T18:06:54.429Z,39.39
2023-05-10T18:07:54.364Z,39.47
2023-05-10T18:08:54.311Z,39.42
2023-05-10T18:09:54.225Z,39.45
2023-05-10T18:10:54.166Z,39.43
2023-05-10T18:11:54.098Z,39.43
2023-05-10T18:12:54.042Z,39.42
2023-05-10T18:13:53.969Z,39.43
2023-05-10T18:14:53.894Z,39.47
2023-05-10T18:15:53.834Z,39.44
2023-05-10T18:16:53.791Z,39.40
2023-05-10T18:17:53.742Z,39.39
2023-05-10T18:18:53.704Z,39.39
2023-05-10T18:19:53.609Z,39.43
2023-05-10T18:20:53.518Z,39.42